createdAt,value
2017-05-28T00:00:29.746Z,8.23
2017-05-28T00:02:58.060Z,7.58
2017-05-28T00:05:26.350Z,8.83
2017-05-28T00:07:54.676Z,8.02
2017-05-28T00:10:22.986Z,7.32
2017-05-28T00:12:51.318Z,8.08
2017-05-28T00:15:19.614Z,8.18
2017-05-28T00:17:48.824Z,7.88
2017-05-28T00:20:17.138Z,8.55
2017-05-28T00:22:45.434Z,8.32
2017-05-28T00:25:13.765Z,8.70
2017-05-28T00:27:42.051Z,8.22
2017-05-28T00:30:10.371Z,6.72
2017-05-28T00:32:38.695Z,6.95
2017-05-28T00:35:06.999Z,7.18
2017-05-28T00:37:35.322Z,7.72
2017-05-28T00:40:03.614Z,7.20
2017-05-28T00:42:31.942Z,7.02
2017-05-28T00:45:00.257Z,6.62
2017-05-28T00:47:28.559Z,6.60
2017-05-28T00:49:56.888Z,7.10
2017-05-28T00:52:25.197Z,7.02
2017-05-28T00:54:53.490Z,8.22
2017-05-28T00:57:21.814Z,7.13
2017-05-28T00:59:50.132Z,6.87
2017-05-28T01:02:18.470Z,6.62
2017-05-28T01:04:46.776Z,6.38
2017-05-28T01:07:15.077Z,6.93
2017-05-28T01:09:43.402Z,6.17
2017-05-28T01:12:11.716Z,5.90
2017-05-28T01:14:40.038Z,7.60
2017-05-28T01:17:09.050Z,6.48
2017-05-28T01:19:37.372Z,6.88
2017-05-28T01:22:05.693Z,6.02
2017-05-28T01:24:33.999Z,6.08
2017-05-28T01:27:02.322Z,6.47
2017-05-28T01:29:31.135Z,6.98
2017-05-28T01:31:59.441Z,7.15
2017-05-28T01:34:27.777Z,5.93
2017-05-28T01:36:56.066Z,6.78
2017-05-28T01:39:24.417Z,7.08
2017-05-28T01:41:52.798Z,6.47
2017-05-28T01:44:21.108Z,6.68
2017-05-28T01:46:49.418Z,6.87
2017-05-28T01:49:17.706Z,7.13
2017-05-28T01:51:46.030Z,7.18
2017-05-28T01:54:14.314Z,7.27
2017-05-28T01:56:42.618Z,7.17
2017-05-28T01:59:10.930Z,7.37
2017-05-28T02:01:39.218Z,6.20
2017-05-28T02:04:07.530Z,6.95
2017-05-28T02:06:35.827Z,6.62
2017-05-28T02:09:04.159Z,7.48
2017-05-28T02:11:32.475Z,7.02
2017-05-28T02:14:00.774Z,7.82
2017-05-28T02:16:29.090Z,7.42
2017-05-28T02:18:57.378Z,8.13
2017-05-28T02:21:25.706Z,7.08
2017-05-28T02:23:54.007Z,8.67
2017-05-28T02:26:22.322Z,6.72
2017-05-28T02:28:50.636Z,7.38
2017-05-28T02:31:18.951Z,8.97
2017-05-28T02:33:47.270Z,6.87
2017-05-28T02:36:15.566Z,7.58
2017-05-28T02:38:43.875Z,6.77
2017-05-28T02:41:12.182Z,6.57
2017-05-28T02:43:40.485Z,8.43
2017-05-28T02:46:08.818Z,7.62
2017-05-28T02:48:37.123Z,7.18
2017-05-28T02:51:05.431Z,7.22
2017-05-28T02:53:33.753Z,6.80
2017-05-28T02:56:02.057Z,6.87
2017-05-28T02:58:30.387Z,7.30
2017-05-28T03:00:58.698Z,7.38
2017-05-28T03:03:26.992Z,7.32
2017-05-28T03:05:55.325Z,8.45
2017-05-28T03:08:23.635Z,6.83
2017-05-28T03:10:51.979Z,7.78
2017-05-28T03:13:20.273Z,7.75
2017-05-28T03:15:48.582Z,6.88
2017-05-28T03:18:16.893Z,7.97
2017-05-28T03:20:45.182Z,7.68
2017-05-28T03:23:13.514Z,7.53
2017-05-28T03:25:41.805Z,7.78
2017-05-28T03:28:10.090Z,8.02
2017-05-28T03:30:38.398Z,7.65
2017-05-28T03:33:06.717Z,7.22
2017-05-28T03:35:35.043Z,8.57
2017-05-28T03:38:03.343Z,7.48
2017-05-28T03:40:31.642Z,7.95
2017-05-28T03:42:59.951Z,7.98
2017-05-28T03:45:28.263Z,6.82
2017-05-28T03:47:56.573Z,7.90
2017-05-28T03:50:24.871Z,7.63
2017-05-28T03:52:53.203Z,6.97
2017-05-28T03:55:21.517Z,7.07
2017-05-28T03:57:49.814Z,6.35
2017-05-28T04:00:18.137Z,6.93
2017-05-28T04:02:46.430Z,7.58
2017-05-28T04:05:14.726Z,7.27
2017-05-28T04:07:43.035Z,7.15
2017-05-28T04:10:11.327Z,6.90
2017-05-28T04:12:43.315Z,6.28
2017-05-28T04:15:11.611Z,6.05
2017-05-28T04:17:39.911Z,7.13
2017-05-28T04:20:08.452Z,7.08
2017-05-28T04:22:36.737Z,6.35
2017-05-28T04:25:05.026Z,6.95
2017-05-28T04:27:33.344Z,6.15
2017-05-28T04:30:01.646Z,6.75
2017-05-28T04:32:29.958Z,5.55
2017-05-28T04:34:58.313Z,5.92
2017-05-28T04:37:26.632Z,5.12
2017-05-28T04:39:54.968Z,5.42
2017-05-28T04:42:23.804Z,4.92
2017-05-28T04:44:52.111Z,5.40
2017-05-28T04:47:20.432Z,5.76
2017-05-28T04:49:48.731Z,5.26
2017-05-28T04:52:17.064Z,4.92
2017-05-28T04:54:45.695Z,6.02
2017-05-28T04:57:13.992Z,5.10
2017-05-28T04:59:42.312Z,6.60
2017-05-28T05:02:10.594Z,6.32
2017-05-28T05:04:38.923Z,4.98
2017-05-28T05:07:07.218Z,5.30
2017-05-28T05:09:35.518Z,5.46
2017-05-28T05:12:03.832Z,5.36
2017-05-28T05:14:32.133Z,5.08
2017-05-28T05:17:00.456Z,4.44
2017-05-28T05:19:28.768Z,5.04
2017-05-28T05:21:57.061Z,4.62
2017-05-28T05:24:25.390Z,4.52
2017-05-28T05:26:53.687Z,5.54
2017-05-28T05:29:21.997Z,4.08
2017-05-28T05:31:49.522Z,5.16
2017-05-28T05:34:17.814Z,4.98
2017-05-28T05:36:46.125Z,6.44
2017-05-28T05:39:14.424Z,5.58
2017-05-28T05:41:42.746Z,4.66
2017-05-28T05:44:11.038Z,4.44
2017-05-28T05:46:39.343Z,4.88
2017-05-28T05:49:07.661Z,4.26
2017-05-28T05:51:35.953Z,3.64
2017-05-28T05:54:04.269Z,3.50
2017-05-28T05:56:32.570Z,4.46
2017-05-28T05:59:00.865Z,3.60
2017-05-28T06:01:29.175Z,3.30
2017-05-28T06:03:57.476Z,7.34
2017-05-28T06:06:25.834Z,3.08
2017-05-28T06:08:54.126Z,3.68
2017-05-28T06:11:22.431Z,3.78
2017-05-28T06:13:50.753Z,3.64
2017-05-28T06:16:19.051Z,3.92
2017-05-28T06:18:47.377Z,3.40
2017-05-28T06:21:15.680Z,3.74
2017-05-28T06:23:44.008Z,3.66
2017-05-28T06:26:12.324Z,4.50
2017-05-28T06:28:40.640Z,4.62
2017-05-28T06:31:08.974Z,3.42
2017-05-28T06:33:37.275Z,3.76
2017-05-28T06:36:05.577Z,4.38
2017-05-28T06:38:33.897Z,3.68
2017-05-28T06:41:02.197Z,3.64
2017-05-28T06:43:30.525Z,3.16
2017-05-28T06:45:58.812Z,4.42
2017-05-28T06:48:27.098Z,3.42
2017-05-28T06:50:55.415Z,3.08
2017-05-28T06:53:23.726Z,3.38
2017-05-28T06:55:52.037Z,3.50
2017-05-28T06:58:20.337Z,4.40
2017-05-28T07:00:48.705Z,3.98
2017-05-28T07:03:16.991Z,3.74
2017-05-28T07:05:45.318Z,4.10
2017-05-28T07:08:13.627Z,4.20
2017-05-28T07:10:41.923Z,3.80
2017-05-28T07:13:10.265Z,3.78
2017-05-28T07:15:38.573Z,4.18
2017-05-28T07:18:06.866Z,3.18
2017-05-28T07:20:35.191Z,3.16
2017-05-28T07:23:03.486Z,3.78
2017-05-28T07:25:31.806Z,3.62
2017-05-28T07:28:00.095Z,4.28
2017-05-28T07:30:28.391Z,6.34
2017-05-28T07:32:56.719Z,3.34
2017-05-28T07:35:25.027Z,3.40
2017-05-28T07:37:53.347Z,3.90
2017-05-28T07:40:21.659Z,3.08
2017-05-28T07:42:49.950Z,3.32
2017-05-28T07:45:18.267Z,3.16
2017-05-28T07:47:46.570Z,3.56
2017-05-28T07:50:14.891Z,3.50
2017-05-28T07:52:48.946Z,3.50
2017-05-28T07:55:17.258Z,3.32
2017-05-28T07:57:45.558Z,3.22
2017-05-28T08:00:13.862Z,3.52
2017-05-28T08:02:42.195Z,3.02
2017-05-28T08:05:10.495Z,3.34
2017-05-28T08:07:38.817Z,3.34
2017-05-28T08:10:07.110Z,3.80
2017-05-28T08:12:35.422Z,3.36
2017-05-28T08:15:03.736Z,3.26
2017-05-28T08:17:32.058Z,3.38
2017-05-28T08:20:00.438Z,3.44
2017-05-28T08:22:28.730Z,3.68
2017-05-28T08:24:57.029Z,2.82
2017-05-28T08:27:25.354Z,3.06
2017-05-28T08:29:53.649Z,3.22
2017-05-28T08:32:21.983Z,2.72
2017-05-28T08:34:50.266Z,2.92
2017-05-28T08:37:18.572Z,2.98
2017-05-28T08:39:46.904Z,2.74
2017-05-28T08:42:15.210Z,3.06
2017-05-28T08:44:43.542Z,2.72
2017-05-28T08:47:11.854Z,3.42
2017-05-28T08:49:40.174Z,3.30
2017-05-28T08:52:08.498Z,2.90
2017-05-28T08:54:36.794Z,2.90
2017-05-28T08:57:05.173Z,3.26
2017-05-28T08:59:33.477Z,4.12
2017-05-28T09:02:01.773Z,3.32
2017-05-28T09:04:30.093Z,2.70
2017-05-28T09:06:58.386Z,2.66
2017-05-28T09:09:26.710Z,3.70
2017-05-28T09:11:55.002Z,3.18
2017-05-28T09:14:23.307Z,3.68
2017-05-28T09:16:51.618Z,3.10
2017-05-28T09:19:19.906Z,3.02
2017-05-28T09:21:48.222Z,2.70
2017-05-28T09:24:16.514Z,3.06
2017-05-28T09:26:44.822Z,3.06
2017-05-28T09:29:13.126Z,4.30
2017-05-28T09:31:41.426Z,2.14
2017-05-28T09:34:09.743Z,4.98
2017-05-28T09:36:38.041Z,3.06
2017-05-28T09:39:06.346Z,2.52
2017-05-28T09:41:34.650Z,2.78
2017-05-28T09:44:02.963Z,2.70
2017-05-28T09:46:31.270Z,2.68
2017-05-28T09:48:59.644Z,2.98
2017-05-28T09:51:27.939Z,2.10
2017-05-28T09:53:56.250Z,2.98
2017-05-28T09:56:24.545Z,2.84
2017-05-28T09:58:52.863Z,2.70
2017-05-28T10:01:21.151Z,2.98
2017-05-28T10:03:49.456Z,3.60
2017-05-28T10:06:17.780Z,2.80
2017-05-28T10:08:45.415Z,3.26
2017-05-28T10:11:13.725Z,2.48
2017-05-28T10:13:42.020Z,2.40
2017-05-28T10:16:10.314Z,3.70
2017-05-28T10:18:38.630Z,3.46
2017-05-28T10:21:06.919Z,3.60
2017-05-28T10:23:35.235Z,2.84
2017-05-28T10:26:03.543Z,2.84
2017-05-28T10:28:31.854Z,2.44
2017-05-28T10:31:00.180Z,3.00
2017-05-28T10:33:28.470Z,2.52
2017-05-28T10:35:56.793Z,3.10
2017-05-28T10:38:25.083Z,2.04
2017-05-28T10:40:53.386Z,2.14
2017-05-28T10:43:21.701Z,2.64
2017-05-28T10:45:49.991Z,2.70
2017-05-28T10:48:18.302Z,2.68
2017-05-28T10:50:46.597Z,2.20
2017-05-28T10:53:14.929Z,1.94
2017-05-28T10:55:43.227Z,2.00
2017-05-28T10:58:11.522Z,3.26
2017-05-28T11:00:39.833Z,2.18
2017-05-28T11:03:08.122Z,2.66
2017-05-28T11:05:36.441Z,2.54
2017-05-28T11:08:04.738Z,2.58
2017-05-28T11:10:33.027Z,2.10
2017-05-28T11:13:01.363Z,2.14
2017-05-28T11:15:29.673Z,2.50
2017-05-28T11:17:57.965Z,2.24
2017-05-28T11:20:26.276Z,2.76
2017-05-28T11:23:05.263Z,2.48
2017-05-28T11:25:33.590Z,2.54
2017-05-28T11:28:01.894Z,3.18
2017-05-28T11:30:30.203Z,2.14
2017-05-28T11:32:58.536Z,2.34
2017-05-28T11:35:33.427Z,1.90
2017-05-28T11:38:01.755Z,1.88
2017-05-28T11:40:30.060Z,3.14
2017-05-28T11:42:58.346Z,2.26
2017-05-28T11:45:26.658Z,6.92
2017-05-28T11:47:54.967Z,2.04
2017-05-28T11:50:23.332Z,2.16
2017-05-28T11:52:51.643Z,2.18
2017-05-28T11:55:19.939Z,1.98
2017-05-28T11:57:48.261Z,2.00
2017-05-28T12:00:16.555Z,1.74
2017-05-28T12:02:44.872Z,2.24
2017-05-28T12:05:13.182Z,2.22
2017-05-28T12:07:41.495Z,2.32
2017-05-28T12:10:09.811Z,2.36
2017-05-28T12:12:38.111Z,2.26
2017-05-28T12:15:06.430Z,1.86
2017-05-28T12:17:34.742Z,2.40
2017-05-28T12:20:03.072Z,2.16
2017-05-28T12:22:31.368Z,2.72
2017-05-28T12:24:59.653Z,2.44
2017-05-28T12:27:27.963Z,1.88
2017-05-28T12:29:56.274Z,2.02
2017-05-28T12:32:24.589Z,1.96
2017-05-28T12:34:52.890Z,2.14
2017-05-28T12:37:21.219Z,1.96
2017-05-28T12:39:49.509Z,1.76
2017-05-28T12:42:17.800Z,3.10
2017-05-28T12:44:46.143Z,2.14
2017-05-28T12:47:14.438Z,1.60
2017-05-28T12:49:42.759Z,1.58
2017-05-28T12:52:11.053Z,1.68
2017-05-28T12:54:39.374Z,2.20
2017-05-28T12:57:07.662Z,1.78
2017-05-28T12:59:35.185Z,2.30
2017-05-28T13:02:03.490Z,1.60
2017-05-28T13:04:31.781Z,1.76
2017-05-28T13:07:00.104Z,1.54
2017-05-28T13:09:28.399Z,2.02
2017-05-28T13:11:56.711Z,1.48
2017-05-28T13:14:25.006Z,1.96
2017-05-28T13:16:53.296Z,1.92
2017-05-28T13:19:21.606Z,1.62
2017-05-28T13:21:49.899Z,1.68
2017-05-28T13:24:18.223Z,3.00
2017-05-28T13:26:46.519Z,2.36
2017-05-28T13:29:14.847Z,7.08
2017-05-28T13:31:43.152Z,1.70
2017-05-28T13:34:11.437Z,1.52
2017-05-28T13:36:39.754Z,1.80
2017-05-28T13:39:08.050Z,2.42
2017-05-28T13:41:36.366Z,1.70
2017-05-28T13:44:04.672Z,2.30
2017-05-28T13:46:32.989Z,1.72
2017-05-28T13:49:01.282Z,1.42
2017-05-28T13:51:29.574Z,1.78
2017-05-28T13:53:57.883Z,2.10
2017-05-28T13:56:26.182Z,1.74
2017-05-28T13:58:54.502Z,1.68
2017-05-28T14:01:22.822Z,1.90
2017-05-28T14:03:51.138Z,1.74
2017-05-28T14:06:19.434Z,1.90
2017-05-28T14:08:47.728Z,1.40
2017-05-28T14:11:16.042Z,1.88
2017-05-28T14:13:44.339Z,2.58
2017-05-28T14:16:12.667Z,2.04
2017-05-28T14:18:40.958Z,1.60
2017-05-28T14:21:09.272Z,1.52
2017-05-28T14:23:37.561Z,1.72
2017-05-28T14:26:05.872Z,1.44
2017-05-28T14:28:34.189Z,3.24
2017-05-28T14:31:02.483Z,1.44
2017-05-28T14:33:30.793Z,1.54
2017-05-28T14:35:59.105Z,1.44
2017-05-28T14:38:27.501Z,1.54
2017-05-28T14:40:55.792Z,3.26
2017-05-28T14:43:24.091Z,2.20
2017-05-28T14:45:52.404Z,1.44
2017-05-28T14:48:20.694Z,1.20
2017-05-28T14:50:49.009Z,1.26
2017-05-28T14:53:17.299Z,1.30
2017-05-28T14:55:45.609Z,2.44
2017-05-28T14:58:13.905Z,1.50
2017-05-28T15:00:42.218Z,1.52
2017-05-28T15:03:10.534Z,1.26
2017-05-28T15:05:38.822Z,2.00
2017-05-28T15:08:07.160Z,1.56
2017-05-28T15:10:35.471Z,1.40
2017-05-28T15:13:03.794Z,1.12
2017-05-28T15:15:32.087Z,1.48
2017-05-28T15:18:00.378Z,1.54
2017-05-28T15:20:28.690Z,1.38
2017-05-28T15:22:56.986Z,1.34
2017-05-28T15:25:25.302Z,1.26
2017-05-28T15:27:53.591Z,1.50
2017-05-28T15:30:21.138Z,1.58
2017-05-28T15:32:49.434Z,1.66
2017-05-28T15:35:17.754Z,2.30
2017-05-28T15:37:46.058Z,1.60
2017-05-28T15:40:14.354Z,1.90
2017-05-28T15:42:42.662Z,1.38
2017-05-28T15:45:10.969Z,1.58
2017-05-28T15:47:39.291Z,2.34
2017-05-28T15:50:07.582Z,2.04
2017-05-28T15:52:35.939Z,1.44
2017-05-28T15:55:04.250Z,2.24
2017-05-28T15:57:32.541Z,2.70
2017-05-28T16:00:00.862Z,1.70
2017-05-28T16:02:29.154Z,1.52
2017-05-28T16:04:57.486Z,1.30
2017-05-28T16:07:25.780Z,1.30
2017-05-28T16:09:54.083Z,1.42
2017-05-28T16:12:22.395Z,1.66
2017-05-28T16:14:50.686Z,2.28
2017-05-28T16:17:19.008Z,1.74
2017-05-28T16:19:47.298Z,1.28
2017-05-28T16:22:15.634Z,2.48
2017-05-28T16:24:43.946Z,1.46
2017-05-28T16:27:12.242Z,1.92
2017-05-28T16:29:41.059Z,2.14
2017-05-28T16:32:09.347Z,3.34
2017-05-28T16:34:37.659Z,1.40
2017-05-28T16:37:05.966Z,1.36
2017-05-28T16:39:34.283Z,1.82
2017-05-28T16:42:02.586Z,1.74
2017-05-28T16:44:30.871Z,3.28
2017-05-28T16:46:59.186Z,2.20
2017-05-28T16:49:27.490Z,2.54
2017-05-28T16:51:56.215Z,1.54
2017-05-28T16:54:24.526Z,2.24
2017-05-28T16:56:52.863Z,1.52
2017-05-28T16:59:21.154Z,1.78
2017-05-28T17:01:49.455Z,3.70
2017-05-28T17:04:17.771Z,3.38
2017-05-28T17:06:46.070Z,1.72
2017-05-28T17:09:14.387Z,1.80
2017-05-28T17:11:42.678Z,2.06
2017-05-28T17:14:11.059Z,2.42
2017-05-28T17:16:39.378Z,1.46
2017-05-28T17:19:07.714Z,1.68
2017-05-28T17:21:36.043Z,2.84
2017-05-28T17:24:04.360Z,2.18
2017-05-28T17:26:32.662Z,1.60
2017-05-28T17:29:00.969Z,1.74
2017-05-28T17:31:29.270Z,1.82
2017-05-28T17:33:57.593Z,1.36
2017-05-28T17:36:25.885Z,2.28
2017-05-28T17:38:54.177Z,1.88
2017-05-28T17:41:22.494Z,1.70
2017-05-28T17:43:50.799Z,1.70
2017-05-28T17:46:19.106Z,2.00
2017-05-28T17:48:47.421Z,2.16
2017-05-28T17:51:15.733Z,2.00
2017-05-28T17:53:44.032Z,3.16
2017-05-28T17:56:12.358Z,3.90
2017-05-28T17:58:40.650Z,7.52
2017-05-28T18:01:08.969Z,9.30
2017-05-28T18:03:37.308Z,8.24
2017-05-28T18:06:05.629Z,8.46
2017-05-28T18:08:33.941Z,9.60
2017-05-28T18:11:02.254Z,7.02
2017-05-28T18:13:30.558Z,4.42
2017-05-28T18:15:58.887Z,4.62
2017-05-28T18:18:27.195Z,4.76
2017-05-28T18:20:55.494Z,4.18
2017-05-28T18:23:23.818Z,3.54
2017-05-28T18:25:52.118Z,3.28
2017-05-28T18:28:20.441Z,2.70
2017-05-28T18:30:48.742Z,2.52
2017-05-28T18:33:17.036Z,2.54
2017-05-28T18:35:45.349Z,3.12
2017-05-28T18:38:13.651Z,4.08
2017-05-28T18:40:41.967Z,3.74
2017-05-28T18:43:10.258Z,3.82
2017-05-28T18:45:38.561Z,3.04
2017-05-28T18:48:06.875Z,3.42
2017-05-28T18:50:35.175Z,3.32
2017-05-28T18:53:03.496Z,2.62
2017-05-28T18:55:31.789Z,3.00
2017-05-28T18:58:00.085Z,2.66
2017-05-28T19:00:28.403Z,2.54
2017-05-28T19:02:56.699Z,2.90
2017-05-28T19:05:25.017Z,2.64
2017-05-28T19:07:53.331Z,2.66
2017-05-28T19:10:21.626Z,2.98
2017-05-28T19:12:49.941Z,3.98
2017-05-28T19:15:18.245Z,5.90
2017-05-28T19:17:46.558Z,3.00
2017-05-28T19:20:14.850Z,2.92
2017-05-28T19:22:43.142Z,3.24
2017-05-28T19:25:11.456Z,4.88
2017-05-28T19:27:39.746Z,5.22
2017-05-28T19:30:08.059Z,4.94
2017-05-28T19:32:36.364Z,3.78
2017-05-28T19:35:04.675Z,4.32
2017-05-28T19:37:32.982Z,4.04
2017-05-28T19:40:01.283Z,5.90
2017-05-28T19:42:29.953Z,8.92
2017-05-28T19:44:58.282Z,12.50
2017-05-28T19:47:26.586Z,4.25
2017-05-28T19:49:54.902Z,3.35
2017-05-28T19:52:23.198Z,3.27
2017-05-28T19:54:51.538Z,3.28
2017-05-28T19:57:19.842Z,4.15
2017-05-28T19:59:48.137Z,3.88
2017-05-28T20:02:16.453Z,3.32
2017-05-28T20:04:44.749Z,3.50
2017-05-28T20:07:13.064Z,3.38
2017-05-28T20:09:41.358Z,3.90
2017-05-28T20:12:09.655Z,3.95
2017-05-28T20:14:37.987Z,4.13
2017-05-28T20:17:06.282Z,5.27
2017-05-28T20:19:34.603Z,3.77
2017-05-28T20:22:02.902Z,3.43
2017-05-28T20:24:31.193Z,3.93
2017-05-28T20:26:59.514Z,3.42
2017-05-28T20:29:27.811Z,4.00
2017-05-28T20:31:56.150Z,3.38
2017-05-28T20:34:24.445Z,5.90
2017-05-28T20:36:52.735Z,3.40
2017-05-28T20:39:21.051Z,4.10
2017-05-28T20:41:49.383Z,4.15
2017-05-28T20:44:17.714Z,4.15
2017-05-28T20:46:46.001Z,4.30
2017-05-28T20:49:14.298Z,4.67
2017-05-28T20:51:42.601Z,3.58
2017-05-28T20:54:10.894Z,3.18
2017-05-28T20:56:39.233Z,11.75
2017-05-28T20:59:07.530Z,3.40
2017-05-28T21:01:35.823Z,3.10
2017-05-28T21:04:04.138Z,3.93
2017-05-28T21:06:32.434Z,3.47
2017-05-28T21:09:00.759Z,2.83
2017-05-28T21:11:29.055Z,4.15
2017-05-28T21:13:57.347Z,3.28
2017-05-28T21:16:25.660Z,3.53
2017-05-28T21:18:53.955Z,5.68
2017-05-28T21:21:22.280Z,3.98
2017-05-28T21:23:50.570Z,2.73
2017-05-28T21:26:18.867Z,3.07
2017-05-28T21:28:47.174Z,3.07
2017-05-28T21:31:15.467Z,3.57
2017-05-28T21:33:43.783Z,3.20
2017-05-28T21:36:12.075Z,3.38
2017-05-28T21:38:40.368Z,3.18
2017-05-28T21:41:08.678Z,4.60
2017-05-28T21:43:36.973Z,4.38
2017-05-28T21:46:05.290Z,3.30
2017-05-28T21:48:33.586Z,2.88
2017-05-28T21:51:01.875Z,3.42
2017-05-28T21:53:30.187Z,3.05
2017-05-28T21:55:58.478Z,3.98
2017-05-28T21:58:26.797Z,3.33
2017-05-28T22:00:55.090Z,2.72
2017-05-28T22:03:23.381Z,2.77
2017-05-28T22:05:51.728Z,3.08
2017-05-28T22:08:20.022Z,2.67
2017-05-28T22:10:48.346Z,2.77
2017-05-28T22:13:16.647Z,3.85
2017-05-28T22:15:44.942Z,3.53
2017-05-28T22:18:13.257Z,3.68
2017-05-28T22:20:41.610Z,3.65
2017-05-28T22:23:09.934Z,3.10
2017-05-28T22:25:38.229Z,2.88
2017-05-28T22:28:06.518Z,2.92
2017-05-28T22:30:34.825Z,3.35
2017-05-28T22:33:03.122Z,4.37
2017-05-28T22:35:31.442Z,3.12
2017-05-28T22:37:59.727Z,2.97
2017-05-28T22:40:28.032Z,3.47
2017-05-28T22:42:56.335Z,3.32
2017-05-28T22:45:24.626Z,4.37
2017-05-28T22:47:52.947Z,3.85
2017-05-28T22:50:21.242Z,6.17
2017-05-28T22:52:49.537Z,4.70
2017-05-28T22:55:17.847Z,3.38
2017-05-28T22:57:46.141Z,3.92
2017-05-28T23:00:14.465Z,3.50
2017-05-28T23:02:42.753Z,3.67
2017-05-28T23:05:11.050Z,3.28
2017-05-28T23:07:39.363Z,3.50
2017-05-28T23:10:07.654Z,2.93
2017-05-28T23:12:35.994Z,3.43
2017-05-28T23:15:04.286Z,3.30
2017-05-28T23:17:32.586Z,4.95
2017-05-28T23:20:00.906Z,3.53
2017-05-28T23:22:29.199Z,3.45
2017-05-28T23:24:57.514Z,6.47
2017-05-28T23:27:25.812Z,3.87
2017-05-28T23:29:54.102Z,3.27
2017-05-28T23:32:22.417Z,3.55
2017-05-28T23:34:50.706Z,4.37
2017-05-28T23:37:19.022Z,3.78
2017-05-28T23:39:47.312Z,3.55
2017-05-28T23:42:15.606Z,4.32
2017-05-28T23:44:43.927Z,3.82
2017-05-28T23:47:12.221Z,3.53
2017-05-28T23:49:40.527Z,3.45
2017-05-28T23:52:08.819Z,3.53
2017-05-28T23:54:37.136Z,3.28
2017-05-28T23:57:05.425Z,3.68
2017-05-28T23:59:33.715Z,3.67
